Terminal Aerodrome Forecast
Issued by NWS

Home | Current Version | Previous Version | Text Only | Print | Product List | Glossary On
Versions: 1 2 3 4 5 6 7 8 9 10 11 12 13 14 15 16 17 18 19 20 21 22 23 24 25 26
000
FTUS45 KABQ 101729
TAFSAF
TAF
KSAF 101729Z 1018/1118 30008KT P6SM FEW250
     FM110200 35006KT P6SM SCT250
      TEMPO 1112/1116 36011KT=

USA.gov is the U.S. government's official web portal to all federal, state and local government web resources and services.